Time;durP1;ratioP1;P1;durP2;ratioP2;P2;SDS_P1;SDS_P2;PMS_P1;PMS_P2;Temp;Humidity;BMP_temperature;BMP_pressure;BME280_temperature;BME280_humidity;BME280_pressure;Samples;Min_cycle;Max_cycle;Signal;HPM_P1;HPM_P2
2022/01/22 00:02:24;;;;;;;0.10;0.10;;;2.70;99.90;;;;;;5058797;28;20025;-68
2022/01/22 00:04:51;;;;;;;0.10;0.10;;;2.80;99.90;;;;;;5052749;28;20394;-68
2022/01/22 00:07:16;;;;;;;0.10;0.10;;;2.80;99.90;;;;;;5054378;28;20100;-68
2022/01/22 00:09:50;;;;;;;0.10;0.10;;;2.90;99.90;;;;;;5055232;28;20105;-68
2022/01/22 00:12:28;;;;;;;0.10;0.10;;;2.80;99.90;;;;;;5056300;28;20040;-68
2022/01/22 00:14:54;;;;;;;0.10;0.10;;;2.90;99.90;;;;;;5055538;28;20018;-68
2022/01/22 00:17:19;;;;;;;0.10;0.10;;;2.90;99.90;;;;;;5056304;28;20075;-70
2022/01/22 00:19:45;;;;;;;0.10;0.10;;;3.00;99.90;;;;;;5055083;28;20336;-68
2022/01/22 00:22:11;;;;;;;0.10;0.10;;;3.00;99.90;;;;;;5056481;28;20029;-68
2022/01/22 00:24:39;;;;;;;0.10;0.10;;;3.00;99.90;;;;;;5058326;28;20025;-68
2022/01/22 00:27:05;;;;;;;0.10;0.10;;;3.00;99.90;;;;;;5052632;28;20059;-67
2022/01/22 00:29:31;;;;;;;0.10;0.10;;;3.00;99.90;;;;;;5055501;28;20115;-68
2022/01/22 00:31:56;;;;;;;0.10;0.10;;;3.10;99.90;;;;;;5053070;28;20147;-68
2022/01/22 00:34:22;;;;;;;0.10;0.10;;;3.10;99.90;;;;;;5052606;28;20101;-67
2022/01/22 00:36:48;;;;;;;0.20;0.20;;;3.10;99.90;;;;;;5048926;28;20041;-69
2022/01/22 00:39:13;;;;;;;5.68;3.42;;;3.20;99.90;;;;;;5070017;28;20031;-68
2022/01/22 00:41:39;;;;;;;0.10;0.10;;;3.20;99.90;;;;;;5059480;28;20033;-68
2022/01/22 00:44:05;;;;;;;0.10;0.10;;;3.20;99.90;;;;;;5034317;28;20561;-68
2022/01/22 00:46:31;;;;;;;0.10;0.10;;;3.20;99.90;;;;;;5057400;28;20040;-69
2022/01/22 00:48:56;;;;;;;0.10;0.10;;;3.30;99.90;;;;;;5035369;28;20045;-69
2022/01/22 00:51:22;;;;;;;0.10;0.10;;;3.30;99.90;;;;;;5052037;28;20032;-68
2022/01/22 00:53:48;;;;;;;0.10;0.10;;;3.30;99.90;;;;;;5053339;28;20029;-70
2022/01/22 00:56:14;;;;;;;0.10;0.10;;;3.30;99.90;;;;;;5063771;28;20131;-69
2022/01/22 00:58:40;;;;;;;0.10;0.10;;;3.30;99.90;;;;;;5069226;28;20103;-67
2022/01/22 01:01:06;;;;;;;0.10;0.10;;;3.30;99.90;;;;;;5054617;28;20089;-69
2022/01/22 01:03:33;;;;;;;0.10;0.10;;;3.30;99.90;;;;;;5059430;28;20478;-69
2022/01/22 01:06:04;;;;;;;0.10;0.10;;;3.30;99.90;;;;;;5049275;28;20466;-69
2022/01/22 01:08:32;;;;;;;0.10;0.10;;;3.30;99.90;;;;;;5052380;28;20025;-70
2022/01/22 01:10:58;;;;;;;0.10;0.10;;;3.30;99.90;;;;;;5047864;28;20052;-69
2022/01/22 01:13:26;;;;;;;0.10;0.10;;;3.30;99.90;;;;;;5047410;28;20021;-70
2022/01/22 01:16:14;;;;;;;0.10;0.10;;;3.30;99.90;;;;;;5050993;28;20025;-69
2022/01/22 01:32:29;;;;;;;0.10;0.10;;;3.40;99.90;;;;;;5057556;28;20499;-69
2022/01/22 01:34:56;;;;;;;;;;;3.40;99.90;;;;;;5058271;28;20025;-69
2022/01/22 01:37:22;;;;;;;0.10;0.10;;;3.40;99.90;;;;;;5059274;28;19916;-69
2022/01/22 01:39:52;;;;;;;0.10;0.10;;;3.40;99.90;;;;;;5056767;28;20305;-67
2022/01/22 01:42:26;;;;;;;0.45;0.45;;;3.40;99.90;;;;;;5043290;28;20094;-69
2022/01/22 01:44:52;;;;;;;0.10;0.10;;;3.90;99.90;;;;;;5060131;28;20020;-69
2022/01/22 01:47:19;;;;;;;0.10;0.10;;;3.50;99.90;;;;;;5059523;28;20358;-69
2022/01/22 01:49:45;;;;;;;0.10;0.10;;;3.50;99.90;;;;;;5056700;28;20504;-69
2022/01/22 01:52:17;;;;;;;0.10;0.10;;;3.50;99.90;;;;;;5059771;28;20037;-69
2022/01/22 01:59:54;;;;;;;0.10;0.10;;;3.60;99.90;;;;;;5059349;28;20036;-69
2022/01/22 02:02:22;;;;;;;0.10;0.10;;;3.50;99.90;;;;;;5059528;28;20025;-70
2022/01/22 02:04:48;;;;;;;1.25;1.17;;;3.60;99.90;;;;;;5058281;28;20021;-69
2022/01/22 02:07:13;;;;;;;0.10;0.10;;;3.70;99.90;;;;;;5058307;28;20024;-69
2022/01/22 02:09:41;;;;;;;0.00;0.00;;;3.60;99.90;;;;;;5059901;28;20106;-70
2022/01/22 02:12:34;;;;;;;0.20;0.20;;;3.60;99.90;;;;;;5057385;28;20031;-69
2022/01/22 02:26:02;;;;;;;0.10;0.10;;;3.60;99.90;;;;;;5059844;28;20083;-70
2022/01/22 02:28:28;;;;;;;0.52;0.52;;;3.70;99.90;;;;;;5055158;28;20047;-70
2022/01/22 02:31:01;;;;;;;0.10;0.10;;;3.70;99.90;;;;;;5060607;28;20462;-69
2022/01/22 02:33:35;;;;;;;;;;;3.70;99.90;;;;;;5058932;28;20028;-69
2022/01/22 02:36:13;;;;;;;0.10;0.10;;;3.70;99.90;;;;;;5060503;28;19995;-68
2022/01/22 02:39:50;;;;;;;0.13;0.13;;;3.70;99.90;;;;;;5060576;28;20029;-69
2022/01/22 02:41:42;;;;;;;0.43;0.43;;;3.70;99.90;;;;;;5041884;28;20052;-69
2022/01/22 02:44:11;;;;;;;0.10;0.10;;;3.70;99.90;;;;;;5050058;28;20028;-68
2022/01/22 02:46:42;;;;;;;0.10;0.10;;;3.70;99.90;;;;;;5058190;28;20487;-68
2022/01/22 02:49:07;;;;;;;0.10;0.10;;;3.70;99.90;;;;;;5054911;28;20037;-69
2022/01/22 02:51:33;;;;;;;0.10;0.10;;;3.70;99.90;;;;;;5053543;28;20474;-68
2022/01/22 02:54:00;;;;;;;0.00;0.00;;;3.70;99.90;;;;;;5054507;28;20033;-68
2022/01/22 02:56:26;;;;;;;0.10;0.10;;;3.70;99.90;;;;;;5055417;28;20032;-69
2022/01/22 02:58:53;;;;;;;0.10;0.10;;;3.70;99.90;;;;;;5059568;28;20093;-69
2022/01/22 03:01:19;;;;;;;0.10;0.10;;;3.70;99.90;;;;;;5054858;28;20052;-69
2022/01/22 03:03:45;;;;;;;0.10;0.10;;;3.70;99.90;;;;;;5055854;28;20017;-69
2022/01/22 03:06:11;;;;;;;0.10;0.10;;;3.70;99.90;;;;;;5059904;28;20466;-69
2022/01/22 03:08:39;;;;;;;0.10;0.10;;;3.70;99.90;;;;;;5037196;28;20525;-68
2022/01/22 03:11:16;;;;;;;0.10;0.10;;;3.70;99.90;;;;;;5054743;28;20033;-68
2022/01/22 03:21:32;;;;;;;0.10;0.10;;;3.60;99.90;;;;;;5059653;28;20114;-68
2022/01/22 03:29:59;;;;;;;0.10;0.10;;;2.60;99.90;;;;;;5057595;28;20043;-68
2022/01/22 03:32:19;;;;;;;0.10;0.10;;;3.70;99.90;;;;;;5056172;28;20044;-69
2022/01/22 03:34:56;;;;;;;0.10;0.10;;;3.70;99.90;;;;;;5057650;28;20036;-69
2022/01/22 03:37:26;;;;;;;0.10;0.10;;;3.70;99.90;;;;;;5057749;28;20021;-68
2022/01/22 03:39:53;;;;;;;0.10;0.10;;;3.70;99.90;;;;;;5058246;28;20052;-68
2022/01/22 03:42:19;;;;;;;0.10;0.10;;;3.70;99.90;;;;;;5058241;28;20028;-70
2022/01/22 03:44:45;;;;;;;0.10;0.10;;;3.70;99.90;;;;;;5059146;28;20051;-70
2022/01/22 03:47:10;;;;;;;0.10;0.10;;;3.70;99.90;;;;;;5052974;28;20584;-69
2022/01/22 03:49:36;;;;;;;0.10;0.10;;;3.70;99.90;;;;;;5057889;28;20056;-69
2022/01/22 03:52:02;;;;;;;0.10;0.10;;;3.70;99.90;;;;;;5057446;28;20605;-69
2022/01/22 03:54:28;;;;;;;0.10;0.10;;;3.70;99.90;;;;;;5055346;28;20021;-69
2022/01/22 03:56:53;;;;;;;0.10;0.10;;;3.70;99.90;;;;;;5055909;28;20431;-68
2022/01/22 03:59:19;;;;;;;0.10;0.10;;;3.70;99.90;;;;;;5053733;28;20033;-69
2022/01/22 04:04:41;;;;;;;0.10;0.10;;;3.70;99.90;;;;;;5022143;28;20028;-69
2022/01/22 04:09:55;;;;;;;0.10;0.10;;;3.70;99.90;;;;;;5055085;28;20059;-69
2022/01/22 04:12:28;;;;;;;0.10;0.10;;;3.70;99.90;;;;;;5053186;28;20116;-69
2022/01/22 04:15:00;;;;;;;0.10;0.10;;;3.70;99.90;;;;;;5059384;28;20068;-69
2022/01/22 04:25:34;;;;;;;0.10;0.10;;;3.70;99.90;;;;;;5097131;28;20089;-70
2022/01/22 04:28:01;;;;;;;0.10;0.10;;;3.70;99.90;;;;;;5100167;28;20016;-69
2022/01/22 04:30:28;;;;;;;0.10;0.10;;;3.70;99.90;;;;;;5083233;28;20426;-71
2022/01/22 04:32:54;;;;;;;0.10;0.10;;;3.70;99.90;;;;;;5102258;28;20080;-70
2022/01/22 04:35:22;;;;;;;0.10;0.10;;;3.70;99.90;;;;;;5101111;28;20039;-70
2022/01/22 04:37:48;;;;;;;0.10;0.10;;;3.70;99.90;;;;;;5102711;28;20020;-70
2022/01/22 04:40:14;;;;;;;0.10;0.10;;;3.70;99.90;;;;;;5082226;28;20362;-72
2022/01/22 04:42:42;;;;;;;0.10;0.10;;;3.70;99.90;;;;;;5100476;28;20073;-70
2022/01/22 04:45:25;;;;;;;0.10;0.10;;;3.70;99.90;;;;;;5101881;28;20020;-71
2022/01/22 04:48:25;;;;;;;0.10;0.10;;;3.70;99.90;;;;;;5101315;28;20027;-70
2022/01/22 04:56:19;;;;;;;0.05;0.05;;;3.80;99.90;;;;;;5099139;28;20057;-70
2022/01/22 04:58:45;;;;;;;0.10;0.10;;;3.70;99.90;;;;;;5098759;28;20118;-71
2022/01/22 05:01:10;;;;;;;0.10;0.10;;;3.80;99.90;;;;;;5090358;28;20024;-71
2022/01/22 05:03:36;;;;;;;0.10;0.10;;;3.80;99.90;;;;;;5099527;28;20465;-70
2022/01/22 05:06:06;;;;;;;0.10;0.10;;;3.80;99.90;;;;;;5095204;28;20491;-71
2022/01/22 05:08:31;;;;;;;0.20;0.20;;;3.80;99.90;;;;;;5095866;28;20480;-71
2022/01/22 05:10:57;;;;;;;0.15;0.15;;;3.80;99.90;;;;;;5097802;28;20034;-70
2022/01/22 05:13:22;;;;;;;0.10;0.10;;;3.80;99.90;;;;;;5101515;28;20496;-70
2022/01/22 05:15:48;;;;;;;0.10;0.10;;;3.80;99.90;;;;;;5096156;28;20030;-70
2022/01/22 05:18:14;;;;;;;0.10;0.10;;;3.80;99.90;;;;;;5095787;28;20474;-70
2022/01/22 05:20:54;;;;;;;0.10;0.10;;;3.80;99.90;;;;;;5096759;28;20063;-70
2022/01/22 05:23:23;;;;;;;0.10;0.10;;;3.80;99.90;;;;;;5094290;28;20073;-70
2022/01/22 05:25:59;;;;;;;0.13;0.13;;;3.80;99.90;;;;;;5095097;28;20055;-70
2022/01/22 05:37:03;;;;;;;0.10;0.10;;;3.80;99.90;;;;;;5070429;28;20036;-70
2022/01/22 05:39:32;;;;;;;0.10;0.10;;;3.80;99.90;;;;;;5096343;28;20030;-70
2022/01/22 05:42:02;;;;;;;0.10;0.10;;;3.80;99.90;;;;;;5095950;28;20077;-71
2022/01/22 05:44:31;;;;;;;0.10;0.10;;;3.80;99.90;;;;;;5096187;28;20027;-71
2022/01/22 05:47:02;;;;;;;0.10;0.10;;;3.80;99.90;;;;;;5093104;28;20145;-71
2022/01/22 05:49:30;;;;;;;0.10;0.10;;;3.80;99.90;;;;;;5094706;28;20073;-71
2022/01/22 05:51:57;;;;;;;0.10;0.10;;;3.80;99.90;;;;;;5079133;28;20416;-70
2022/01/22 05:59:40;;;;;;;0.10;0.10;;;3.80;99.90;;;;;;5092988;28;20080;-70
2022/01/22 06:02:14;;;;;;;0.13;0.13;;;3.80;99.90;;;;;;5098935;28;20028;-70
2022/01/22 06:04:41;;;;;;;0.10;0.10;;;3.80;99.90;;;;;;5100125;28;20020;-70
2022/01/22 06:07:08;;;;;;;0.00;0.00;;;3.80;99.90;;;;;;5092775;28;20015;-71
2022/01/22 06:09:37;;;;;;;0.10;0.10;;;3.80;99.90;;;;;;5098984;28;20445;-70
2022/01/22 06:14:31;;;;;;;0.10;0.10;;;3.80;99.90;;;;;;5099749;28;20027;-70
2022/01/22 06:16:57;;;;;;;0.10;0.10;;;3.80;99.90;;;;;;5100332;28;20049;-71
2022/01/22 06:19:23;;;;;;;0.30;0.30;;;3.90;99.90;;;;;;5098427;28;20423;-70
2022/01/22 06:21:51;;;;;;;0.10;0.10;;;3.90;99.90;;;;;;5098554;28;20031;-70
2022/01/22 06:24:17;;;;;;;0.10;0.10;;;3.90;99.90;;;;;;5099753;28;20206;-71
2022/01/22 06:26:43;;;;;;;1.75;1.48;;;3.90;99.90;;;;;;5096446;28;20366;-70
2022/01/22 06:29:09;;;;;;;0.10;0.10;;;3.90;99.90;;;;;;5100449;28;20080;-70
2022/01/22 06:31:35;;;;;;;0.25;0.25;;;3.90;99.90;;;;;;5099112;28;20461;-70
2022/01/22 06:34:02;;;;;;;0.10;0.10;;;3.90;99.90;;;;;;5090665;28;20457;-70
2022/01/22 06:36:28;;;;;;;0.10;0.10;;;3.90;99.90;;;;;;5089978;28;20028;-71
2022/01/22 06:39:10;;;;;;;0.10;0.10;;;3.90;99.90;;;;;;5089953;28;20067;-70
2022/01/22 06:41:45;;;;;;;0.20;0.20;;;3.90;99.90;;;;;;5084835;28;20024;-70
2022/01/22 06:44:17;;;;;;;0.47;0.47;;;3.90;99.90;;;;;;5086356;28;20112;-71
2022/01/22 06:46:45;;;;;;;0.10;0.10;;;3.90;99.90;;;;;;5089824;28;20035;-71
2022/01/22 06:49:11;;;;;;;0.10;0.10;;;3.90;99.90;;;;;;5089843;28;20107;-72
2022/01/22 06:51:37;;;;;;;0.10;0.10;;;3.90;99.90;;;;;;5083773;28;20034;-70
2022/01/22 06:54:05;;;;;;;0.10;0.10;;;3.90;99.90;;;;;;5089778;28;20107;-70
2022/01/22 06:56:31;;;;;;;0.10;0.10;;;3.90;99.90;;;;;;5090197;28;20024;-71
2022/01/22 06:58:58;;;;;;;0.10;0.10;;;3.90;99.90;;;;;;5085845;28;20032;-70
2022/01/22 07:01:25;;;;;;;0.10;0.10;;;3.90;99.90;;;;;;5088133;28;20098;-70
2022/01/22 07:03:51;;;;;;;0.10;0.10;;;3.90;99.90;;;;;;5080337;28;20028;-70
2022/01/22 07:06:16;;;;;;;0.10;0.10;;;3.90;99.90;;;;;;5081229;28;20035;-70
2022/01/22 07:08:42;;;;;;;0.10;0.10;;;3.90;99.90;;;;;;5080620;28;20021;-71
2022/01/22 07:11:08;;;;;;;0.10;0.10;;;3.90;99.90;;;;;;5086957;28;20322;-71
2022/01/22 07:13:34;;;;;;;0.10;0.10;;;3.90;99.90;;;;;;5085423;28;20029;-71
2022/01/22 07:16:00;;;;;;;0.10;0.10;;;3.90;99.90;;;;;;5077479;28;20048;-70
2022/01/22 07:18:28;;;;;;;0.10;0.10;;;3.90;99.90;;;;;;5070954;28;20032;-71
2022/01/22 07:20:54;;;;;;;0.10;0.10;;;3.90;99.90;;;;;;5069981;28;20028;-71
2022/01/22 07:23:56;;;;;;;0.10;0.10;;;3.80;99.90;;;;;;5069216;28;20039;-71
2022/01/22 07:26:18;;;;;;;0.10;0.10;;;3.80;99.90;;;;;;5069314;28;20119;-70
2022/01/22 07:28:44;;;;;;;0.10;0.10;;;3.80;99.90;;;;;;5068333;28;20021;-70
2022/01/22 07:31:10;;;;;;;1.95;1.85;;;3.80;99.90;;;;;;5084762;28;20553;-72
2022/01/22 07:33:36;;;;;;;0.10;0.10;;;3.90;99.90;;;;;;5088965;28;20464;-71
2022/01/22 07:36:03;;;;;;;0.20;0.20;;;3.90;99.90;;;;;;5089102;28;20032;-75
2022/01/22 07:38:29;;;;;;;0.10;0.10;;;3.90;99.90;;;;;;5069425;28;20096;-70
2022/01/22 07:40:55;;;;;;;0.10;0.10;;;3.90;99.90;;;;;;5089034;28;20158;-73
2022/01/22 07:43:20;;;;;;;0.10;0.10;;;3.90;99.90;;;;;;5089716;28;20469;-72
2022/01/22 07:45:46;;;;;;;0.10;0.10;;;3.90;99.90;;;;;;5086656;28;20039;-70
2022/01/22 07:48:12;;;;;;;0.10;0.10;;;3.90;99.90;;;;;;5068807;28;20100;-71
2022/01/22 07:50:37;;;;;;;0.10;0.10;;;3.90;99.90;;;;;;5080718;28;20416;-71
2022/01/22 07:53:03;;;;;;;0.10;0.10;;;3.90;99.90;;;;;;5093437;28;20027;-75
2022/01/22 07:55:30;;;;;;;0.10;0.10;;;3.90;99.90;;;;;;5074613;28;20021;-70
2022/01/22 07:57:55;;;;;;;0.32;0.32;;;3.90;99.90;;;;;;5074546;28;20113;-70
2022/01/22 08:00:21;;;;;;;0.10;0.10;;;3.80;99.90;;;;;;5093389;28;20075;-72
2022/01/22 08:02:47;;;;;;;0.68;0.68;;;3.80;99.90;;;;;;5084182;28;20032;-73
2022/01/22 08:05:13;;;;;;;0.10;0.10;;;3.80;99.90;;;;;;5093176;28;20032;-72
2022/01/22 08:07:43;;;;;;;0.20;0.20;;;3.80;99.90;;;;;;5093238;28;20024;-73
2022/01/22 08:10:10;;;;;;;0.10;0.10;;;3.80;99.90;;;;;;5091007;28;20020;-70
2022/01/22 08:12:37;;;;;;;0.10;0.10;;;3.80;99.90;;;;;;5073429;28;20028;-70
2022/01/22 08:15:04;;;;;;;0.10;0.10;;;3.80;99.90;;;;;;5091483;28;20024;-70
2022/01/22 08:17:30;;;;;;;0.10;0.10;;;3.80;99.90;;;;;;5091833;28;20105;-71
2022/01/22 08:19:56;;;;;;;0.10;0.10;;;3.80;99.90;;;;;;5082343;28;20028;-70
2022/01/22 08:22:21;;;;;;;0.10;0.10;;;3.80;99.90;;;;;;5087232;28;20054;-71
2022/01/22 08:24:47;;;;;;;0.10;0.10;;;3.80;99.90;;;;;;5074666;28;20036;-71
2022/01/22 08:27:20;;;;;;;0.10;0.10;;;3.80;99.90;;;;;;5088401;28;20551;-70
2022/01/22 08:29:46;;;;;;;0.10;0.10;;;3.70;99.90;;;;;;5072916;28;20051;-70
2022/01/22 08:37:28;;;;;;;0.10;0.10;;;3.70;99.90;;;;;;5085270;28;20495;-73
2022/01/22 08:39:54;;;;;;;0.10;0.10;;;3.60;99.90;;;;;;5092878;28;20119;-75
2022/01/22 08:42:20;;;;;;;0.10;0.10;;;3.60;99.90;;;;;;5093031;28;20035;-73
2022/01/22 08:44:46;;;;;;;0.10;0.10;;;3.70;99.90;;;;;;5085330;28;20055;-72
2022/01/22 08:47:13;;;;;;;0.15;0.15;;;3.70;99.90;;;;;;5090722;28;20043;-73
2022/01/22 08:49:39;;;;;;;0.30;0.30;;;3.70;99.90;;;;;;5092731;28;20020;-71
2022/01/22 08:52:14;;;;;;;0.10;0.10;;;3.70;99.90;;;;;;5073352;28;20035;-70
2022/01/22 08:54:41;;;;;;;0.10;0.10;;;3.70;99.90;;;;;;5079334;28;20194;-69
2022/01/22 08:57:07;;;;;;;0.10;0.10;;;3.70;99.90;;;;;;5082545;28;20030;-70
2022/01/22 08:59:32;;;;;;;0.10;0.10;;;3.70;99.90;;;;;;5091636;28;20499;-71
2022/01/22 09:01:59;;;;;;;0.10;0.10;;;3.80;99.90;;;;;;5080353;28;20036;-70
2022/01/22 09:04:25;;;;;;;1.02;1.02;;;3.80;99.90;;;;;;5087112;28;20020;-70
2022/01/22 09:06:50;;;;;;;0.63;0.63;;;3.80;99.90;;;;;;5091929;28;20031;-70
2022/01/22 09:09:16;;;;;;;0.10;0.10;;;3.80;99.90;;;;;;5085834;28;20096;-71
2022/01/22 09:11:44;;;;;;;0.30;0.30;;;3.90;99.90;;;;;;5082522;28;20043;-70
2022/01/22 09:14:12;;;;;;;0.10;0.10;;;3.90;99.90;;;;;;5084911;28;20505;-71
2022/01/22 09:16:38;;;;;;;0.10;0.10;;;3.90;99.90;;;;;;5083831;28;20028;-71
2022/01/22 09:19:07;;;;;;;0.10;0.10;;;3.90;99.90;;;;;;5091183;28;20031;-71
2022/01/22 09:21:38;;;;;;;0.10;0.10;;;3.90;99.90;;;;;;5082008;28;20037;-71
2022/01/22 09:24:05;;;;;;;0.00;0.00;;;3.90;99.90;;;;;;5071578;28;20556;-71
2022/01/22 09:26:31;;;;;;;0.17;0.17;;;3.90;99.90;;;;;;5053569;28;20035;-70
2022/01/22 09:28:59;;;;;;;0.10;0.10;;;4.00;99.90;;;;;;5083790;28;20142;-71
2022/01/22 09:31:27;;;;;;;0.10;0.10;;;4.00;99.90;;;;;;5090398;28;20020;-72
2022/01/22 09:33:56;;;;;;;0.17;0.17;;;4.00;99.90;;;;;;5108216;28;20143;-71
2022/01/22 09:36:22;;;;;;;1.88;1.77;;;4.10;99.90;;;;;;5087202;28;20081;-71
2022/01/22 09:38:48;;;;;;;0.10;0.10;;;4.00;99.90;;;;;;5080622;28;20056;-71
2022/01/22 09:41:18;;;;;;;0.10;0.10;;;4.10;99.90;;;;;;5086841;28;20523;-70
2022/01/22 09:43:44;;;;;;;0.10;0.10;;;4.00;99.90;;;;;;5086169;28;20043;-71
2022/01/22 09:46:11;;;;;;;0.10;0.10;;;4.00;99.90;;;;;;5083626;28;20028;-69
2022/01/22 09:48:45;;;;;;;0.10;0.10;;;4.10;99.90;;;;;;5087249;28;20028;-71
2022/01/22 09:51:13;;;;;;;0.10;0.10;;;4.20;99.90;;;;;;5082632;28;20601;-73
2022/01/22 09:53:40;;;;;;;0.10;0.10;;;4.30;99.90;;;;;;5071998;28;20038;-72
2022/01/22 09:56:06;;;;;;;0.10;0.10;;;4.20;99.90;;;;;;5086989;28;20031;-71
2022/01/22 09:58:31;;;;;;;0.10;0.10;;;4.20;99.90;;;;;;5084044;28;20100;-71
2022/01/22 10:01:19;;;;;;;0.10;0.10;;;4.20;99.90;;;;;;5089002;28;20028;-72
2022/01/22 10:03:45;;;;;;;0.10;0.10;;;4.30;99.90;;;;;;5085670;28;20021;-71
2022/01/22 10:06:20;;;;;;;0.10;0.10;;;4.20;99.90;;;;;;5078646;28;20519;-69
2022/01/22 10:08:46;;;;;;;0.00;0.00;;;4.30;99.90;;;;;;5085035;28;20508;-72
2022/01/22 10:11:27;;;;;;;0.25;0.25;;;4.30;99.90;;;;;;5089188;28;20028;-71
2022/01/22 10:13:58;;;;;;;0.10;0.10;;;4.30;99.90;;;;;;5081469;28;20474;-71
2022/01/22 10:16:32;;;;;;;0.10;0.10;;;4.40;99.90;;;;;;5083397;28;20035;-71
2022/01/22 10:19:11;;;;;;;0.17;0.17;;;4.40;99.90;;;;;;5080005;28;20151;-70
2022/01/22 10:21:39;;;;;;;0.20;0.20;;;4.50;99.90;;;;;;5077563;28;20111;-70
2022/01/22 10:24:33;;;;;;;0.10;0.10;;;4.50;99.90;;;;;;5065398;28;20497;-71
2022/01/22 10:27:10;;;;;;;;;;;4.50;99.90;;;;;;5089766;28;20134;-70
2022/01/22 10:29:36;;;;;;;0.43;0.43;;;4.60;99.90;;;;;;5083281;28;20178;-69
2022/01/22 10:32:03;;;;;;;0.10;0.10;;;4.60;99.90;;;;;;5069651;28;20090;-70
2022/01/22 10:34:30;;;;;;;0.10;0.10;;;4.60;99.90;;;;;;5063952;28;20028;-70
2022/01/22 10:36:59;;;;;;;0.10;0.10;;;4.70;99.90;;;;;;5087657;28;20032;-70
2022/01/22 10:39:26;;;;;;;0.10;0.10;;;4.70;99.90;;;;;;5080900;28;20060;-72
2022/01/22 10:41:52;;;;;;;0.20;0.20;;;4.60;99.90;;;;;;5086111;28;20032;-69
2022/01/22 10:44:46;;;;;;;0.10;0.10;;;4.60;99.90;;;;;;5062321;22;21296;-74
2022/01/22 10:47:22;;;;;;;0.10;0.10;;;4.60;99.90;;;;;;5060593;28;20024;-73
2022/01/22 10:49:48;;;;;;;0.10;0.10;;;4.60;99.90;;;;;;5062109;28;20036;-70
2022/01/22 10:52:14;;;;;;;0.10;0.10;;;4.60;99.90;;;;;;5045994;28;20131;-70
2022/01/22 10:54:40;;;;;;;0.10;0.10;;;4.60;99.90;;;;;;5078054;28;20027;-70
2022/01/22 10:57:18;;;;;;;1.30;1.30;;;4.70;99.90;;;;;;5074820;28;20024;-70
2022/01/22 10:59:55;;;;;;;0.10;0.10;;;4.70;99.90;;;;;;5073295;28;20082;-68
2022/01/22 11:02:50;;;;;;;0.10;0.10;;;4.70;99.90;;;;;;5080231;28;20027;-69
2022/01/22 11:05:34;;;;;;;0.10;0.10;;;4.70;99.90;;;;;;5049247;28;20036;-71
2022/01/22 11:08:14;;;;;;;0.10;0.10;;;4.80;99.90;;;;;;5077005;28;20022;-71
2022/01/22 11:10:40;;;;;;;0.10;0.10;;;4.80;99.90;;;;;;5075398;28;20134;-70
2022/01/22 11:13:07;;;;;;;0.10;0.10;;;4.70;99.90;;;;;;5072101;28;20112;-68
2022/01/22 11:15:34;;;;;;;0.10;0.10;;;4.70;99.90;;;;;;5072249;28;20017;-74
2022/01/22 11:18:00;;;;;;;0.10;0.10;;;4.60;99.90;;;;;;5074986;28;20035;-73
2022/01/22 11:20:27;;;;;;;0.10;0.10;;;4.70;99.90;;;;;;5076910;28;20096;-71
2022/01/22 11:22:53;;;;;;;0.10;0.10;;;4.70;99.90;;;;;;5076801;28;20030;-71
2022/01/22 11:25:20;;;;;;;0.10;0.10;;;4.60;99.90;;;;;;5072528;28;20478;-73
2022/01/22 11:27:47;;;;;;;0.30;0.30;;;4.70;99.90;;;;;;5077294;28;20470;-73
2022/01/22 11:30:15;;;;;;;0.10;0.10;;;4.70;99.90;;;;;;5071693;28;20493;-72
2022/01/22 11:32:48;;;;;;;0.68;0.68;;;4.70;99.90;;;;;;5065854;28;20031;-68
2022/01/22 11:35:38;;;;;;;0.10;0.10;;;4.70;99.90;;;;;;5059350;28;20016;-69
2022/01/22 11:38:12;;;;;;;0.10;0.10;;;4.70;99.90;;;;;;5058842;28;20056;-69
2022/01/22 11:40:38;;;;;;;0.10;0.10;;;4.70;99.90;;;;;;5069049;28;20029;-68
2022/01/22 11:43:08;;;;;;;0.10;0.10;;;4.80;99.90;;;;;;5068474;28;20036;-69
2022/01/22 11:45:40;;;;;;;0.10;0.10;;;4.80;99.90;;;;;;5058946;28;20127;-69
2022/01/22 11:48:09;;;;;;;0.10;0.10;;;4.90;99.90;;;;;;5068395;28;20016;-68
2022/01/22 11:50:35;;;;;;;0.10;0.10;;;4.90;99.90;;;;;;5068174;28;20109;-68
2022/01/22 11:53:24;;;;;;;0.10;0.10;;;5.00;99.90;;;;;;5067040;28;20425;-69
2022/01/22 11:56:07;;;;;;;0.10;0.10;;;5.10;99.90;;;;;;5068703;28;20033;-68
2022/01/22 11:58:53;;;;;;;0.10;0.10;;;5.10;99.90;;;;;;5068963;28;20170;-69
2022/01/22 12:01:37;;;;;;;0.20;0.20;;;5.20;99.90;;;;;;5067900;28;20485;-68
2022/01/22 12:04:04;;;;;;;0.10;0.10;;;5.30;99.90;;;;;;5053475;28;20073;-71
2022/01/22 12:06:30;;;;;;;0.10;0.10;;;5.30;99.90;;;;;;5041198;28;20025;-68
2022/01/22 12:09:24;;;;;;;0.10;0.10;;;5.40;99.90;;;;;;5053518;28;20393;-68
2022/01/22 12:14:50;;;;;;;0.90;0.90;;;5.40;99.90;;;;;;5049040;28;20465;-69
2022/01/22 12:17:27;;;;;;;0.10;0.10;;;5.30;99.90;;;;;;5063054;28;20033;-69
2022/01/22 12:22:34;;;;;;;0.10;0.10;;;5.00;99.90;;;;;;5062693;28;20036;-68
2022/01/22 12:25:08;;;;;;;0.10;0.10;;;5.10;99.90;;;;;;5050483;28;20557;-68
2022/01/22 12:27:49;;;;;;;0.10;0.10;;;5.20;99.90;;;;;;5067808;28;20048;-67
2022/01/22 12:30:23;;;;;;;0.13;0.13;;;5.20;99.90;;;;;;5048721;28;20025;-68
2022/01/22 12:32:51;;;;;;;0.10;0.10;;;5.20;99.90;;;;;;5037671;28;20041;-68
2022/01/22 12:35:40;;;;;;;0.10;0.10;;;5.20;99.90;;;;;;5068701;28;20029;-68
2022/01/22 12:38:26;;;;;;;0.10;0.10;;;5.30;99.90;;;;;;5051748;28;20031;-69
2022/01/22 12:40:59;;;;;;;0.10;0.10;;;5.30;99.90;;;;;;5033509;28;20033;-69
2022/01/22 12:43:31;;;;;;;0.10;0.10;;;5.30;99.90;;;;;;5081920;28;20112;-68
2022/01/22 12:45:59;;;;;;;0.10;0.10;;;5.30;99.90;;;;;;5067793;28;20279;-70
2022/01/22 12:48:34;;;;;;;0.00;0.00;;;5.40;99.90;;;;;;5068872;28;20453;-69
2022/01/22 12:51:04;;;;;;;0.10;0.10;;;5.30;99.90;;;;;;5067973;28;20044;-70
2022/01/22 12:53:32;;;;;;;0.10;0.10;;;5.30;99.90;;;;;;5079658;28;20033;-69
2022/01/22 12:58:37;;;;;;;0.10;0.10;;;5.40;99.90;;;;;;5071697;28;20017;-70
2022/01/22 13:01:23;;;;;;;0.10;0.10;;;5.40;99.90;;;;;;5052429;28;20051;-68
2022/01/22 13:03:51;;;;;;;0.10;0.10;;;5.40;99.90;;;;;;5075769;28;20024;-69
2022/01/22 13:06:19;;;;;;;5.05;1.05;;;5.30;99.90;;;;;;5076489;28;20392;-67
2022/01/22 13:08:44;;;;;;;0.10;0.10;;;5.30;99.90;;;;;;5077160;28;20111;-69
2022/01/22 13:11:17;;;;;;;0.10;0.10;;;5.40;99.90;;;;;;5078756;28;20682;-69
2022/01/22 13:13:48;;;;;;;0.10;0.10;;;5.50;99.90;;;;;;5058335;28;20043;-70
2022/01/22 13:16:17;;;;;;;0.10;0.10;;;5.40;99.90;;;;;;5074584;28;20063;-69
2022/01/22 13:19:00;;;;;;;0.10;0.10;;;5.30;99.90;;;;;;5077841;28;20068;-70
2022/01/22 13:21:31;;;;;;;0.10;0.10;;;5.30;99.90;;;;;;5078365;28;20089;-70
2022/01/22 13:24:10;;;;;;;0.10;0.10;;;5.30;99.90;;;;;;5074535;28;20043;-71
2022/01/22 13:26:45;;;;;;;0.10;0.10;;;5.30;99.90;;;;;;5077736;28;20116;-69
2022/01/22 13:29:40;;;;;;;0.10;0.10;;;5.30;99.90;;;;;;5077339;28;20020;-70
2022/01/22 13:32:13;;;;;;;2.85;1.38;;;5.30;99.90;;;;;;5074731;28;20043;-69
2022/01/22 13:35:09;;;;;;;0.10;0.10;;;5.20;99.90;;;;;;5076734;28;20036;-69
2022/01/22 13:41:04;;;;;;;0.10;0.10;;;5.20;99.90;;;;;;5076769;28;20059;-68
2022/01/22 13:49:18;;;;;;;0.10;0.10;;;5.10;99.90;;;;;;5072549;28;20107;-70
2022/01/22 13:51:45;;;;;;;0.57;0.57;;;5.20;99.90;;;;;;5072552;28;20024;-72
2022/01/22 13:54:11;;;;;;;0.10;0.10;;;5.20;99.90;;;;;;5074188;28;20052;-72
2022/01/22 13:56:54;;;;;;;0.10;0.10;;;5.20;99.90;;;;;;5083364;28;20027;-71
2022/01/22 13:59:28;;;;;;;0.10;0.10;;;5.00;99.90;;;;;;5056683;28;20024;-70
2022/01/22 14:02:14;;;;;;;0.10;0.10;;;5.10;99.90;;;;;;5063845;28;20120;-69
2022/01/22 14:04:43;;;;;;;0.10;0.10;;;5.10;99.90;;;;;;5069561;28;20100;-71
2022/01/22 14:07:26;;;;;;;0.10;0.10;;;5.20;99.90;;;;;;5067655;28;20027;-70
2022/01/22 14:09:51;;;;;;;0.10;0.10;;;5.20;99.90;;;;;;5041663;28;20025;-70
2022/01/22 14:12:17;;;;;;;0.10;0.10;;;5.10;99.90;;;;;;5050918;28;20120;-70
2022/01/22 14:15:10;;;;;;;0.57;0.52;;;5.10;99.90;;;;;;5069708;28;20024;-70
2022/01/22 14:18:08;;;;;;;0.10;0.10;;;5.10;99.90;;;;;;5050319;28;20056;-71
2022/01/22 14:20:35;;;;;;;0.10;0.10;;;5.20;99.90;;;;;;5054109;28;20032;-69
2022/01/22 14:23:15;;;;;;;0.10;0.10;;;5.20;99.90;;;;;;5070021;28;20028;-69
2022/01/22 14:26:04;;;;;;;0.10;0.10;;;5.10;99.90;;;;;;5060422;28;20047;-70
2022/01/22 14:28:54;;;;;;;0.10;0.10;;;5.10;99.90;;;;;;5031940;28;20466;-70
2022/01/22 14:31:50;;;;;;;0.25;0.25;;;5.20;99.90;;;;;;5049619;28;20056;-70
2022/01/22 14:34:31;;;;;;;0.10;0.10;;;5.10;99.90;;;;;;5050803;28;20056;-70
2022/01/22 14:36:58;;;;;;;1.77;1.48;;;5.10;99.90;;;;;;5066452;28;20036;-69
2022/01/22 14:44:46;;;;;;;0.10;0.10;;;5.00;99.90;;;;;;5069600;28;20151;-70
2022/01/22 14:47:18;;;;;;;0.30;0.30;;;5.10;99.90;;;;;;5068701;28;20135;-70
2022/01/22 14:49:48;;;;;;;0.10;0.10;;;5.10;99.90;;;;;;5069707;28;20414;-70
2022/01/22 14:52:16;;;;;;;0.10;0.10;;;5.10;99.90;;;;;;5054786;28;20024;-69
2022/01/22 14:54:44;;;;;;;0.10;0.10;;;5.10;99.90;;;;;;5038868;28;20024;-70
2022/01/22 14:57:11;;;;;;;0.10;0.10;;;4.90;99.90;;;;;;5068255;28;20035;-70
2022/01/22 14:59:38;;;;;;;0.10;0.10;;;4.90;99.90;;;;;;5067559;28;20037;-70
2022/01/22 15:02:05;;;;;;;0.08;0.08;;;5.00;99.90;;;;;;5048531;28;20040;-70